Monday, October 20, 2014
21:18 UTC
  |  Log In   |  Register Free
Airport Search:

Caruthersville Memorial Airport
(M05)

Caruthersville Memorial Airport Diagram
No Airport Diagram Available

FAA data valid effective September 18, 2014 - November 13, 2014 (unless otherwise noted).

 
 
 
 
 
 
 
 
 
 
 
 
 
 

Current Aviation Weather for Caruthersville Memorial Airport (M05)

METAR data is unavailable for M05. The nearest METAR location is at KHKA (15.6 nm SW from M05).

The most recent METAR observation for KHKA was updated at: 2109
METAR Summary (Translated METAR)
KHKA
202053Z AUTO 25006KT 10SM SCT055 24/12 A2999 RMK AO2 SLP154 T02390122 56017
(15.6 nm SW from M05)
KDYR
202055Z 24010G14KT 10SM SCT070 22/08 A3001 RMK AO1 57014
(16.6 nm SE from M05)
TAF
No TAF information found within 50 nm of KBYH
  Airport Weather Conditions for M05

Current weather conditions are
not available for M05


The nearest NOAA weather station
is at HKA, (15.6 nm SW from M05)
  
 Current Weather at HKA
75° F
Partly Cloudy
West winds at 6.9 mph
HKA NOAA Radar

Pressure: 29.99 in
Humidity: 48%
Wind: West at 6.9 MPH (6 KT)
Dew Point: 54.0°F
Visibility: 10.00 mi


Airport Weather Forecast for M05

Translated METAR and TAF for KBYH
Translated METAR for KBYH (2113 UTC 20 October 2014)
found at http://aviationweather.gov/adds/metars/
 
METAR text: KBYH 202055Z 22009KT 10SM FEW095 23/13 A2999
Conditions at: KBYH (BLYTHEVILLE , AR, US) observed 2055 UTC 20 October 2014
Temperature: 23.0°C (73°F)
Dewpoint: 13.0°C (55°F) [RH = 53%]
Pressure (altimeter): 29.99 inches Hg (1015.7 mb)
Winds: from the SW (220 degrees) at 10 MPH (9 knots; 4.7 m/s)
Visibility: 10 or more miles (16+ km)
Ceiling: at least 12,000 feet AGL
Clouds: few clouds at 9500 feet AGL
Weather: no significant weather observed at this time
Translated TAF for KBYH

There is no translated TAF available for this airport

Find All Airport Services Find A Hotel Find A Rental Car Find A Golf Course Find A Restaurant $100 Hamburger



FBO's on the Field
FBO Company Facility Photos Services Transportation Aviation Fuel Prices: Prices include tax
Catering Weather Repair Courtesy Rental Type 100LL JetA JetA+ MOGAS 8087
 
Add another FBO Facility Photos Catering Weather Repair Courtesy Rental Type 100LL JetA JetA+ MOGAS 8087
Services Transportation Aviation Fuel Prices: Prices include tax
There are no FBO's currently reporting fuel at M05. List your FBO now


model-print
model-print
model-print
model-print